sensor_id;sensor_type;location;lat;lon;timestamp;P1;durP1;ratioP1;P2;durP2;ratioP2
24715;SDS011;12822;50.124;8.678;2024-01-30T00:00:23;31.48;;;14.10;;
24715;SDS011;12822;50.124;8.678;2024-01-30T00:02:49;26.55;;;13.30;;
24715;SDS011;12822;50.124;8.678;2024-01-30T00:05:15;26.20;;;14.18;;
24715;SDS011;12822;50.124;8.678;2024-01-30T00:07:42;32.58;;;14.18;;
24715;SDS011;12822;50.124;8.678;2024-01-30T00:10:08;23.35;;;12.57;;
24715;SDS011;12822;50.124;8.678;2024-01-30T00:12:34;26.45;;;14.02;;
24715;SDS011;12822;50.124;8.678;2024-01-30T00:15:00;29.88;;;14.55;;
24715;SDS011;12822;50.124;8.678;2024-01-30T00:17:26;24.58;;;13.85;;
24715;SDS011;12822;50.124;8.678;2024-01-30T00:19:52;24.30;;;13.10;;
24715;SDS011;12822;50.124;8.678;2024-01-30T00:22:18;26.27;;;13.18;;
24715;SDS011;12822;50.124;8.678;2024-01-30T00:24:44;24.92;;;12.82;;
24715;SDS011;12822;50.124;8.678;2024-01-30T00:27:10;22.83;;;12.27;;
24715;SDS011;12822;50.124;8.678;2024-01-30T00:29:36;25.95;;;13.52;;
24715;SDS011;12822;50.124;8.678;2024-01-30T00:32:02;25.65;;;12.95;;
24715;SDS011;12822;50.124;8.678;2024-01-30T00:34:28;24.23;;;12.98;;
24715;SDS011;12822;50.124;8.678;2024-01-30T00:36:54;24.65;;;13.10;;
24715;SDS011;12822;50.124;8.678;2024-01-30T00:39:20;25.83;;;12.80;;
24715;SDS011;12822;50.124;8.678;2024-01-30T00:41:46;29.08;;;13.52;;
24715;SDS011;12822;50.124;8.678;2024-01-30T00:44:12;25.60;;;13.55;;
24715;SDS011;12822;50.124;8.678;2024-01-30T00:46:38;29.77;;;13.80;;
24715;SDS011;12822;50.124;8.678;2024-01-30T00:49:04;28.77;;;13.63;;
24715;SDS011;12822;50.124;8.678;2024-01-30T00:51:33;25.08;;;13.07;;
24715;SDS011;12822;50.124;8.678;2024-01-30T00:54:19;25.38;;;12.52;;
24715;SDS011;12822;50.124;8.678;2024-01-30T00:57:00;24.77;;;12.48;;
24715;SDS011;12822;50.124;8.678;2024-01-30T00:59:26;28.27;;;13.02;;
24715;SDS011;12822;50.124;8.678;2024-01-30T01:01:52;23.35;;;12.88;;
24715;SDS011;12822;50.124;8.678;2024-01-30T01:04:18;22.85;;;12.88;;
24715;SDS011;12822;50.124;8.678;2024-01-30T01:06:46;23.33;;;12.85;;
24715;SDS011;12822;50.124;8.678;2024-01-30T01:09:12;25.42;;;13.52;;
24715;SDS011;12822;50.124;8.678;2024-01-30T01:11:50;24.88;;;12.82;;
24715;SDS011;12822;50.124;8.678;2024-01-30T01:14:20;27.17;;;12.80;;
24715;SDS011;12822;50.124;8.678;2024-01-30T01:16:46;25.75;;;13.57;;
24715;SDS011;12822;50.124;8.678;2024-01-30T01:19:12;26.85;;;12.80;;
24715;SDS011;12822;50.124;8.678;2024-01-30T01:21:38;24.50;;;13.52;;
24715;SDS011;12822;50.124;8.678;2024-01-30T01:24:04;30.20;;;12.90;;
24715;SDS011;12822;50.124;8.678;2024-01-30T01:26:30;25.88;;;12.05;;
24715;SDS011;12822;50.124;8.678;2024-01-30T01:28:56;30.00;;;13.57;;
24715;SDS011;12822;50.124;8.678;2024-01-30T01:31:22;24.05;;;13.13;;
24715;SDS011;12822;50.124;8.678;2024-01-30T01:33:49;26.50;;;13.07;;
24715;SDS011;12822;50.124;8.678;2024-01-30T01:36:15;24.73;;;13.13;;
24715;SDS011;12822;50.124;8.678;2024-01-30T01:38:41;23.60;;;11.55;;
24715;SDS011;12822;50.124;8.678;2024-01-30T01:41:07;24.58;;;12.65;;
24715;SDS011;12822;50.124;8.678;2024-01-30T01:43:33;24.33;;;12.70;;
24715;SDS011;12822;50.124;8.678;2024-01-30T01:45:59;22.55;;;12.15;;
24715;SDS011;12822;50.124;8.678;2024-01-30T01:48:26;24.65;;;12.45;;
24715;SDS011;12822;50.124;8.678;2024-01-30T01:50:52;23.65;;;12.63;;
24715;SDS011;12822;50.124;8.678;2024-01-30T01:53:20;25.98;;;12.63;;
24715;SDS011;12822;50.124;8.678;2024-01-30T01:55:46;24.38;;;13.35;;
24715;SDS011;12822;50.124;8.678;2024-01-30T01:58:13;25.13;;;12.80;;
24715;SDS011;12822;50.124;8.678;2024-01-30T02:00:40;23.50;;;12.15;;
24715;SDS011;12822;50.124;8.678;2024-01-30T02:03:07;26.10;;;13.07;;
24715;SDS011;12822;50.124;8.678;2024-01-30T02:05:33;22.45;;;12.02;;
24715;SDS011;12822;50.124;8.678;2024-01-30T02:07:59;26.58;;;13.27;;
24715;SDS011;12822;50.124;8.678;2024-01-30T02:10:25;25.02;;;12.18;;
24715;SDS011;12822;50.124;8.678;2024-01-30T02:12:51;22.70;;;12.40;;
24715;SDS011;12822;50.124;8.678;2024-01-30T02:15:18;29.02;;;13.10;;
24715;SDS011;12822;50.124;8.678;2024-01-30T02:17:44;23.35;;;12.75;;
24715;SDS011;12822;50.124;8.678;2024-01-30T02:20:10;26.70;;;13.32;;
24715;SDS011;12822;50.124;8.678;2024-01-30T02:22:36;24.98;;;13.20;;
24715;SDS011;12822;50.124;8.678;2024-01-30T02:25:03;26.10;;;13.23;;
24715;SDS011;12822;50.124;8.678;2024-01-30T02:27:29;27.42;;;12.48;;
24715;SDS011;12822;50.124;8.678;2024-01-30T02:29:55;24.13;;;12.77;;
24715;SDS011;12822;50.124;8.678;2024-01-30T02:32:21;21.77;;;12.93;;
24715;SDS011;12822;50.124;8.678;2024-01-30T02:34:47;20.73;;;12.73;;
24715;SDS011;12822;50.124;8.678;2024-01-30T02:37:13;25.60;;;13.48;;
24715;SDS011;12822;50.124;8.678;2024-01-30T02:39:39;24.58;;;13.55;;
24715;SDS011;12822;50.124;8.678;2024-01-30T02:42:05;23.75;;;12.80;;
24715;SDS011;12822;50.124;8.678;2024-01-30T02:44:31;22.65;;;12.48;;
24715;SDS011;12822;50.124;8.678;2024-01-30T02:46:57;24.48;;;13.43;;
24715;SDS011;12822;50.124;8.678;2024-01-30T02:49:23;27.58;;;12.63;;
24715;SDS011;12822;50.124;8.678;2024-01-30T02:51:49;23.58;;;13.18;;
24715;SDS011;12822;50.124;8.678;2024-01-30T02:54:15;26.98;;;14.02;;
24715;SDS011;12822;50.124;8.678;2024-01-30T02:56:41;24.75;;;14.10;;
24715;SDS011;12822;50.124;8.678;2024-01-30T02:59:07;24.73;;;13.82;;
24715;SDS011;12822;50.124;8.678;2024-01-30T03:01:38;25.10;;;14.10;;
24715;SDS011;12822;50.124;8.678;2024-01-30T03:04:07;29.30;;;13.93;;
24715;SDS011;12822;50.124;8.678;2024-01-30T03:06:33;31.33;;;14.45;;
24715;SDS011;12822;50.124;8.678;2024-01-30T03:08:59;26.77;;;14.07;;
24715;SDS011;12822;50.124;8.678;2024-01-30T03:11:25;29.38;;;14.18;;
24715;SDS011;12822;50.124;8.678;2024-01-30T03:13:51;25.60;;;13.25;;
24715;SDS011;12822;50.124;8.678;2024-01-30T03:16:17;24.60;;;13.90;;
24715;SDS011;12822;50.124;8.678;2024-01-30T03:18:43;26.00;;;14.18;;
24715;SDS011;12822;50.124;8.678;2024-01-30T03:21:09;24.95;;;13.75;;
24715;SDS011;12822;50.124;8.678;2024-01-30T03:23:35;23.52;;;13.13;;
24715;SDS011;12822;50.124;8.678;2024-01-30T03:26:01;28.45;;;14.23;;
24715;SDS011;12822;50.124;8.678;2024-01-30T03:28:29;22.65;;;13.25;;
24715;SDS011;12822;50.124;8.678;2024-01-30T03:30:55;26.17;;;13.48;;
24715;SDS011;12822;50.124;8.678;2024-01-30T03:33:21;26.05;;;14.32;;
24715;SDS011;12822;50.124;8.678;2024-01-30T03:35:47;25.05;;;14.10;;
24715;SDS011;12822;50.124;8.678;2024-01-30T03:38:13;25.20;;;14.05;;
24715;SDS011;12822;50.124;8.678;2024-01-30T03:40:39;27.25;;;13.93;;
24715;SDS011;12822;50.124;8.678;2024-01-30T03:43:05;24.83;;;12.65;;
24715;SDS011;12822;50.124;8.678;2024-01-30T03:45:31;24.45;;;13.15;;
24715;SDS011;12822;50.124;8.678;2024-01-30T03:47:57;23.65;;;13.30;;
24715;SDS011;12822;50.124;8.678;2024-01-30T03:50:23;26.77;;;13.60;;
24715;SDS011;12822;50.124;8.678;2024-01-30T03:52:49;26.25;;;12.80;;
24715;SDS011;12822;50.124;8.678;2024-01-30T03:55:15;25.17;;;13.20;;
24715;SDS011;12822;50.124;8.678;2024-01-30T03:57:41;26.15;;;13.02;;
24715;SDS011;12822;50.124;8.678;2024-01-30T04:00:07;24.52;;;13.73;;
24715;SDS011;12822;50.124;8.678;2024-01-30T04:02:33;26.90;;;12.75;;
24715;SDS011;12822;50.124;8.678;2024-01-30T04:04:59;27.05;;;14.27;;
24715;SDS011;12822;50.124;8.678;2024-01-30T04:07:25;27.13;;;13.77;;
24715;SDS011;12822;50.124;8.678;2024-01-30T04:09:51;24.70;;;13.45;;
24715;SDS011;12822;50.124;8.678;2024-01-30T04:12:17;26.08;;;14.43;;
24715;SDS011;12822;50.124;8.678;2024-01-30T04:14:43;29.13;;;13.63;;
24715;SDS011;12822;50.124;8.678;2024-01-30T04:17:09;26.83;;;14.10;;
24715;SDS011;12822;50.124;8.678;2024-01-30T04:19:38;30.40;;;14.77;;
24715;SDS011;12822;50.124;8.678;2024-01-30T04:22:04;24.35;;;12.48;;
24715;SDS011;12822;50.124;8.678;2024-01-30T04:24:30;24.90;;;12.98;;
24715;SDS011;12822;50.124;8.678;2024-01-30T04:26:56;28.33;;;13.80;;
24715;SDS011;12822;50.124;8.678;2024-01-30T04:29:22;31.30;;;14.48;;
24715;SDS011;12822;50.124;8.678;2024-01-30T04:31:48;27.05;;;13.95;;
24715;SDS011;12822;50.124;8.678;2024-01-30T04:34:14;26.17;;;13.63;;
24715;SDS011;12822;50.124;8.678;2024-01-30T04:36:42;23.52;;;13.15;;
24715;SDS011;12822;50.124;8.678;2024-01-30T04:39:08;25.65;;;13.40;;
24715;SDS011;12822;50.124;8.678;2024-01-30T04:41:34;23.92;;;13.05;;
24715;SDS011;12822;50.124;8.678;2024-01-30T04:44:00;28.65;;;14.13;;
24715;SDS011;12822;50.124;8.678;2024-01-30T04:46:26;29.98;;;14.00;;
24715;SDS011;12822;50.124;8.678;2024-01-30T04:48:53;29.38;;;14.00;;
24715;SDS011;12822;50.124;8.678;2024-01-30T04:51:19;29.40;;;14.05;;
24715;SDS011;12822;50.124;8.678;2024-01-30T04:53:45;29.17;;;13.90;;
24715;SDS011;12822;50.124;8.678;2024-01-30T04:56:11;26.10;;;14.40;;
24715;SDS011;12822;50.124;8.678;2024-01-30T04:58:37;25.13;;;14.20;;
24715;SDS011;12822;50.124;8.678;2024-01-30T05:01:03;26.63;;;14.63;;
24715;SDS011;12822;50.124;8.678;2024-01-30T05:03:35;27.73;;;14.32;;
24715;SDS011;12822;50.124;8.678;2024-01-30T05:06:01;25.92;;;13.80;;
24715;SDS011;12822;50.124;8.678;2024-01-30T05:08:27;30.33;;;14.38;;
24715;SDS011;12822;50.124;8.678;2024-01-30T05:10:53;26.63;;;13.98;;
24715;SDS011;12822;50.124;8.678;2024-01-30T05:13:22;24.40;;;14.40;;
24715;SDS011;12822;50.124;8.678;2024-01-30T05:15:48;30.85;;;14.48;;
24715;SDS011;12822;50.124;8.678;2024-01-30T05:18:14;25.77;;;13.88;;
24715;SDS011;12822;50.124;8.678;2024-01-30T05:20:40;27.30;;;13.73;;
24715;SDS011;12822;50.124;8.678;2024-01-30T05:23:06;25.48;;;14.77;;
24715;SDS011;12822;50.124;8.678;2024-01-30T05:25:32;33.97;;;13.73;;
24715;SDS011;12822;50.124;8.678;2024-01-30T05:27:58;31.75;;;14.63;;
24715;SDS011;12822;50.124;8.678;2024-01-30T05:30:24;25.13;;;14.15;;
24715;SDS011;12822;50.124;8.678;2024-01-30T05:32:50;28.38;;;14.25;;
24715;SDS011;12822;50.124;8.678;2024-01-30T05:35:16;26.55;;;14.55;;
24715;SDS011;12822;50.124;8.678;2024-01-30T05:37:42;30.52;;;15.77;;
24715;SDS011;12822;50.124;8.678;2024-01-30T05:40:08;34.05;;;14.05;;
24715;SDS011;12822;50.124;8.678;2024-01-30T05:42:34;22.27;;;14.30;;
24715;SDS011;12822;50.124;8.678;2024-01-30T05:45:00;29.15;;;14.77;;
24715;SDS011;12822;50.124;8.678;2024-01-30T05:47:26;30.23;;;14.48;;
24715;SDS011;12822;50.124;8.678;2024-01-30T05:49:52;27.40;;;14.98;;
24715;SDS011;12822;50.124;8.678;2024-01-30T05:52:18;32.40;;;14.52;;
24715;SDS011;12822;50.124;8.678;2024-01-30T05:54:45;25.30;;;14.50;;
24715;SDS011;12822;50.124;8.678;2024-01-30T05:57:11;26.60;;;14.27;;
24715;SDS011;12822;50.124;8.678;2024-01-30T05:59:37;27.20;;;15.52;;
24715;SDS011;12822;50.124;8.678;2024-01-30T06:02:03;24.70;;;14.30;;
24715;SDS011;12822;50.124;8.678;2024-01-30T06:04:29;30.50;;;15.20;;
24715;SDS011;12822;50.124;8.678;2024-01-30T06:06:55;31.50;;;15.02;;
24715;SDS011;12822;50.124;8.678;2024-01-30T06:09:21;28.08;;;15.05;;
24715;SDS011;12822;50.124;8.678;2024-01-30T06:11:47;29.75;;;14.95;;
24715;SDS011;12822;50.124;8.678;2024-01-30T06:14:13;26.20;;;14.35;;
24715;SDS011;12822;50.124;8.678;2024-01-30T06:16:39;27.17;;;14.65;;
24715;SDS011;12822;50.124;8.678;2024-01-30T06:19:05;30.58;;;14.90;;
24715;SDS011;12822;50.124;8.678;2024-01-30T06:21:31;23.88;;;14.40;;
24715;SDS011;12822;50.124;8.678;2024-01-30T06:24:01;29.98;;;15.27;;
24715;SDS011;12822;50.124;8.678;2024-01-30T06:26:27;24.70;;;14.10;;
24715;SDS011;12822;50.124;8.678;2024-01-30T06:28:53;27.17;;;14.80;;
24715;SDS011;12822;50.124;8.678;2024-01-30T06:31:19;26.83;;;14.15;;
24715;SDS011;12822;50.124;8.678;2024-01-30T06:33:49;29.85;;;14.77;;
24715;SDS011;12822;50.124;8.678;2024-01-30T06:36:15;25.42;;;13.93;;
24715;SDS011;12822;50.124;8.678;2024-01-30T06:38:41;32.13;;;15.23;;
24715;SDS011;12822;50.124;8.678;2024-01-30T06:41:07;31.15;;;14.50;;
24715;SDS011;12822;50.124;8.678;2024-01-30T06:43:33;28.55;;;14.70;;
24715;SDS011;12822;50.124;8.678;2024-01-30T06:46:00;27.73;;;14.43;;
24715;SDS011;12822;50.124;8.678;2024-01-30T06:48:26;23.60;;;14.18;;
24715;SDS011;12822;50.124;8.678;2024-01-30T06:50:55;24.77;;;13.50;;
24715;SDS011;12822;50.124;8.678;2024-01-30T06:53:22;30.35;;;15.27;;
24715;SDS011;12822;50.124;8.678;2024-01-30T06:55:51;29.30;;;14.02;;
24715;SDS011;12822;50.124;8.678;2024-01-30T06:58:17;31.83;;;14.70;;
24715;SDS011;12822;50.124;8.678;2024-01-30T07:00:43;28.23;;;15.52;;
24715;SDS011;12822;50.124;8.678;2024-01-30T07:03:10;26.88;;;14.88;;
24715;SDS011;12822;50.124;8.678;2024-01-30T07:05:36;31.92;;;15.30;;
24715;SDS011;12822;50.124;8.678;2024-01-30T07:08:02;30.65;;;15.50;;
24715;SDS011;12822;50.124;8.678;2024-01-30T07:10:28;29.63;;;15.27;;
24715;SDS011;12822;50.124;8.678;2024-01-30T07:12:54;27.73;;;15.05;;
24715;SDS011;12822;50.124;8.678;2024-01-30T07:15:20;29.58;;;16.02;;
24715;SDS011;12822;50.124;8.678;2024-01-30T07:17:46;29.42;;;14.45;;
24715;SDS011;12822;50.124;8.678;2024-01-30T07:20:12;27.17;;;15.13;;
24715;SDS011;12822;50.124;8.678;2024-01-30T07:22:38;32.35;;;15.45;;
24715;SDS011;12822;50.124;8.678;2024-01-30T07:25:04;31.15;;;15.18;;
24715;SDS011;12822;50.124;8.678;2024-01-30T07:27:30;29.23;;;14.88;;
24715;SDS011;12822;50.124;8.678;2024-01-30T07:29:56;30.85;;;16.45;;
24715;SDS011;12822;50.124;8.678;2024-01-30T07:32:22;34.35;;;17.10;;
24715;SDS011;12822;50.124;8.678;2024-01-30T07:34:48;30.58;;;14.85;;
24715;SDS011;12822;50.124;8.678;2024-01-30T07:37:15;34.30;;;15.82;;
24715;SDS011;12822;50.124;8.678;2024-01-30T07:39:41;27.23;;;15.05;;
24715;SDS011;12822;50.124;8.678;2024-01-30T07:42:08;32.42;;;15.02;;
24715;SDS011;12822;50.124;8.678;2024-01-30T07:44:34;29.25;;;15.93;;
24715;SDS011;12822;50.124;8.678;2024-01-30T07:47:00;30.80;;;15.50;;
24715;SDS011;12822;50.124;8.678;2024-01-30T07:49:26;29.15;;;16.13;;
24715;SDS011;12822;50.124;8.678;2024-01-30T07:51:52;29.58;;;15.05;;
24715;SDS011;12822;50.124;8.678;2024-01-30T07:54:18;27.25;;;14.93;;
24715;SDS011;12822;50.124;8.678;2024-01-30T07:56:44;28.85;;;15.40;;
24715;SDS011;12822;50.124;8.678;2024-01-30T07:59:10;30.48;;;16.10;;
24715;SDS011;12822;50.124;8.678;2024-01-30T08:01:36;38.90;;;16.55;;
24715;SDS011;12822;50.124;8.678;2024-01-30T08:04:02;31.90;;;16.27;;
24715;SDS011;12822;50.124;8.678;2024-01-30T08:06:28;29.67;;;15.27;;
24715;SDS011;12822;50.124;8.678;2024-01-30T08:08:54;28.63;;;15.70;;
24715;SDS011;12822;50.124;8.678;2024-01-30T08:11:22;28.17;;;15.77;;
24715;SDS011;12822;50.124;8.678;2024-01-30T08:13:52;30.65;;;16.48;;
24715;SDS011;12822;50.124;8.678;2024-01-30T08:16:18;31.20;;;15.80;;
24715;SDS011;12822;50.124;8.678;2024-01-30T08:18:44;26.15;;;14.73;;
24715;SDS011;12822;50.124;8.678;2024-01-30T08:21:10;33.30;;;15.43;;
24715;SDS011;12822;50.124;8.678;2024-01-30T08:23:38;32.17;;;14.88;;
24715;SDS011;12822;50.124;8.678;2024-01-30T08:26:04;28.88;;;14.93;;
24715;SDS011;12822;50.124;8.678;2024-01-30T08:28:30;30.50;;;14.77;;
24715;SDS011;12822;50.124;8.678;2024-01-30T08:30:56;24.45;;;14.32;;
24715;SDS011;12822;50.124;8.678;2024-01-30T08:33:22;29.25;;;15.60;;
24715;SDS011;12822;50.124;8.678;2024-01-30T08:35:49;28.45;;;13.95;;
24715;SDS011;12822;50.124;8.678;2024-01-30T08:38:15;27.77;;;14.90;;
24715;SDS011;12822;50.124;8.678;2024-01-30T08:40:41;31.08;;;15.27;;
24715;SDS011;12822;50.124;8.678;2024-01-30T08:43:07;28.95;;;15.75;;
24715;SDS011;12822;50.124;8.678;2024-01-30T08:45:35;27.10;;;15.40;;
24715;SDS011;12822;50.124;8.678;2024-01-30T08:48:01;34.15;;;15.30;;
24715;SDS011;12822;50.124;8.678;2024-01-30T08:50:30;26.75;;;15.38;;
24715;SDS011;12822;50.124;8.678;2024-01-30T08:52:56;31.10;;;15.85;;
24715;SDS011;12822;50.124;8.678;2024-01-30T08:55:22;29.30;;;16.67;;
24715;SDS011;12822;50.124;8.678;2024-01-30T08:57:48;27.75;;;16.10;;
24715;SDS011;12822;50.124;8.678;2024-01-30T09:00:17;24.30;;;16.00;;
24715;SDS011;12822;50.124;8.678;2024-01-30T09:02:43;29.08;;;16.00;;
24715;SDS011;12822;50.124;8.678;2024-01-30T09:05:09;29.95;;;16.48;;
24715;SDS011;12822;50.124;8.678;2024-01-30T09:07:35;26.85;;;15.48;;
24715;SDS011;12822;50.124;8.678;2024-01-30T09:10:01;31.02;;;16.95;;
24715;SDS011;12822;50.124;8.678;2024-01-30T09:12:27;27.60;;;16.08;;
24715;SDS011;12822;50.124;8.678;2024-01-30T09:14:53;27.98;;;15.65;;
24715;SDS011;12822;50.124;8.678;2024-01-30T09:17:20;28.23;;;16.83;;
24715;SDS011;12822;50.124;8.678;2024-01-30T09:19:46;30.70;;;15.75;;
24715;SDS011;12822;50.124;8.678;2024-01-30T09:22:12;35.08;;;17.17;;
24715;SDS011;12822;50.124;8.678;2024-01-30T09:24:38;31.20;;;17.48;;
24715;SDS011;12822;50.124;8.678;2024-01-30T09:27:04;29.80;;;16.48;;
24715;SDS011;12822;50.124;8.678;2024-01-30T09:29:30;39.97;;;16.65;;
24715;SDS011;12822;50.124;8.678;2024-01-30T09:31:56;32.50;;;17.40;;
24715;SDS011;12822;50.124;8.678;2024-01-30T09:34:22;32.97;;;17.15;;
24715;SDS011;12822;50.124;8.678;2024-01-30T09:36:48;30.45;;;16.23;;
24715;SDS011;12822;50.124;8.678;2024-01-30T09:39:14;34.67;;;17.33;;
24715;SDS011;12822;50.124;8.678;2024-01-30T09:41:54;30.63;;;17.35;;
24715;SDS011;12822;50.124;8.678;2024-01-30T09:44:21;33.67;;;16.55;;
24715;SDS011;12822;50.124;8.678;2024-01-30T09:46:48;30.48;;;14.98;;
24715;SDS011;12822;50.124;8.678;2024-01-30T09:49:16;32.05;;;16.77;;
24715;SDS011;12822;50.124;8.678;2024-01-30T09:51:44;28.50;;;15.75;;
24715;SDS011;12822;50.124;8.678;2024-01-30T09:54:10;26.70;;;15.40;;
24715;SDS011;12822;50.124;8.678;2024-01-30T09:56:38;29.25;;;14.98;;
24715;SDS011;12822;50.124;8.678;2024-01-30T09:59:04;36.47;;;17.08;;
24715;SDS011;12822;50.124;8.678;2024-01-30T10:01:30;24.23;;;16.15;;
24715;SDS011;12822;50.124;8.678;2024-01-30T10:03:57;27.25;;;15.32;;
24715;SDS011;12822;50.124;8.678;2024-01-30T10:06:24;26.92;;;15.98;;
24715;SDS011;12822;50.124;8.678;2024-01-30T10:08:50;36.72;;;17.33;;
24715;SDS011;12822;50.124;8.678;2024-01-30T10:11:17;32.25;;;15.88;;
24715;SDS011;12822;50.124;8.678;2024-01-30T10:13:42;25.05;;;15.77;;
24715;SDS011;12822;50.124;8.678;2024-01-30T10:16:09;28.83;;;15.98;;
24715;SDS011;12822;50.124;8.678;2024-01-30T10:18:35;27.73;;;15.10;;
24715;SDS011;12822;50.124;8.678;2024-01-30T10:21:01;26.05;;;15.00;;
24715;SDS011;12822;50.124;8.678;2024-01-30T10:23:28;31.98;;;17.27;;
24715;SDS011;12822;50.124;8.678;2024-01-30T10:25:54;31.63;;;16.65;;
24715;SDS011;12822;50.124;8.678;2024-01-30T10:28:20;26.02;;;15.63;;
24715;SDS011;12822;50.124;8.678;2024-01-30T10:30:46;30.45;;;16.98;;
24715;SDS011;12822;50.124;8.678;2024-01-30T10:33:12;35.10;;;15.43;;
24715;SDS011;12822;50.124;8.678;2024-01-30T10:35:38;25.13;;;15.57;;
24715;SDS011;12822;50.124;8.678;2024-01-30T10:38:04;27.95;;;16.83;;
24715;SDS011;12822;50.124;8.678;2024-01-30T10:40:31;25.40;;;15.65;;
24715;SDS011;12822;50.124;8.678;2024-01-30T10:42:59;32.28;;;17.85;;
24715;SDS011;12822;50.124;8.678;2024-01-30T10:45:27;29.98;;;16.17;;
24715;SDS011;12822;50.124;8.678;2024-01-30T10:47:54;26.00;;;15.23;;
24715;SDS011;12822;50.124;8.678;2024-01-30T10:50:26;34.13;;;17.15;;
24715;SDS011;12822;50.124;8.678;2024-01-30T10:52:54;29.63;;;17.05;;
24715;SDS011;12822;50.124;8.678;2024-01-30T10:55:20;31.00;;;17.13;;
24715;SDS011;12822;50.124;8.678;2024-01-30T10:57:48;27.35;;;16.08;;
24715;SDS011;12822;50.124;8.678;2024-01-30T11:00:15;29.10;;;16.35;;
24715;SDS011;12822;50.124;8.678;2024-01-30T11:02:43;25.75;;;15.30;;
24715;SDS011;12822;50.124;8.678;2024-01-30T11:05:09;27.63;;;15.70;;
24715;SDS011;12822;50.124;8.678;2024-01-30T11:07:38;28.88;;;15.30;;
24715;SDS011;12822;50.124;8.678;2024-01-30T11:10:05;22.85;;;14.70;;
24715;SDS011;12822;50.124;8.678;2024-01-30T11:12:37;22.45;;;14.50;;
24715;SDS011;12822;50.124;8.678;2024-01-30T11:17:41;28.20;;;15.95;;
24715;SDS011;12822;50.124;8.678;2024-01-30T11:20:13;29.00;;;15.18;;
24715;SDS011;12822;50.124;8.678;2024-01-30T11:22:41;27.35;;;14.85;;
24715;SDS011;12822;50.124;8.678;2024-01-30T11:25:10;27.73;;;14.60;;
24715;SDS011;12822;50.124;8.678;2024-01-30T11:27:37;25.38;;;13.95;;
24715;SDS011;12822;50.124;8.678;2024-01-30T11:30:03;25.02;;;14.90;;
24715;SDS011;12822;50.124;8.678;2024-01-30T11:32:29;21.65;;;13.52;;
24715;SDS011;12822;50.124;8.678;2024-01-30T11:34:55;23.33;;;14.00;;
24715;SDS011;12822;50.124;8.678;2024-01-30T11:37:21;22.25;;;13.85;;
24715;SDS011;12822;50.124;8.678;2024-01-30T11:39:50;27.75;;;14.80;;
24715;SDS011;12822;50.124;8.678;2024-01-30T11:42:17;22.75;;;13.70;;
24715;SDS011;12822;50.124;8.678;2024-01-30T11:44:47;22.52;;;13.25;;
24715;SDS011;12822;50.124;8.678;2024-01-30T11:47:13;26.77;;;13.60;;
24715;SDS011;12822;50.124;8.678;2024-01-30T11:49:40;21.92;;;13.50;;
24715;SDS011;12822;50.124;8.678;2024-01-30T11:52:06;24.92;;;13.77;;
24715;SDS011;12822;50.124;8.678;2024-01-30T11:54:31;25.70;;;13.30;;
24715;SDS011;12822;50.124;8.678;2024-01-30T11:56:57;20.90;;;13.25;;
24715;SDS011;12822;50.124;8.678;2024-01-30T11:59:24;21.67;;;13.82;;
24715;SDS011;12822;50.124;8.678;2024-01-30T12:01:51;20.98;;;13.15;;
24715;SDS011;12822;50.124;8.678;2024-01-30T12:04:17;22.20;;;14.13;;
24715;SDS011;12822;50.124;8.678;2024-01-30T12:06:43;23.35;;;15.20;;
24715;SDS011;12822;50.124;8.678;2024-01-30T12:09:09;29.98;;;14.27;;
24715;SDS011;12822;50.124;8.678;2024-01-30T12:11:47;25.08;;;14.70;;
24715;SDS011;12822;50.124;8.678;2024-01-30T12:14:14;27.23;;;14.98;;
24715;SDS011;12822;50.124;8.678;2024-01-30T12:16:41;22.33;;;13.57;;
24715;SDS011;12822;50.124;8.678;2024-01-30T12:19:07;20.65;;;14.30;;
24715;SDS011;12822;50.124;8.678;2024-01-30T12:21:33;28.52;;;13.70;;
24715;SDS011;12822;50.124;8.678;2024-01-30T12:24:00;25.60;;;13.77;;
24715;SDS011;12822;50.124;8.678;2024-01-30T12:26:26;28.60;;;13.98;;
24715;SDS011;12822;50.124;8.678;2024-01-30T12:28:55;29.63;;;15.55;;
24715;SDS011;12822;50.124;8.678;2024-01-30T12:31:26;22.25;;;13.77;;
24715;SDS011;12822;50.124;8.678;2024-01-30T12:33:52;25.45;;;15.50;;
24715;SDS011;12822;50.124;8.678;2024-01-30T12:36:19;23.92;;;15.02;;
24715;SDS011;12822;50.124;8.678;2024-01-30T12:38:45;24.83;;;14.65;;
24715;SDS011;12822;50.124;8.678;2024-01-30T12:41:11;26.17;;;14.75;;
24715;SDS011;12822;50.124;8.678;2024-01-30T12:43:37;28.45;;;14.15;;
24715;SDS011;12822;50.124;8.678;2024-01-30T12:46:03;21.75;;;13.80;;
24715;SDS011;12822;50.124;8.678;2024-01-30T12:48:29;24.08;;;14.77;;
24715;SDS011;12822;50.124;8.678;2024-01-30T12:50:55;23.92;;;14.85;;
24715;SDS011;12822;50.124;8.678;2024-01-30T12:53:22;20.38;;;13.65;;
24715;SDS011;12822;50.124;8.678;2024-01-30T12:55:48;22.83;;;14.45;;
24715;SDS011;12822;50.124;8.678;2024-01-30T12:58:15;22.55;;;14.50;;
24715;SDS011;12822;50.124;8.678;2024-01-30T13:00:41;23.48;;;14.73;;
24715;SDS011;12822;50.124;8.678;2024-01-30T13:03:08;23.83;;;13.90;;
24715;SDS011;12822;50.124;8.678;2024-01-30T13:05:35;23.42;;;14.82;;
24715;SDS011;12822;50.124;8.678;2024-01-30T13:08:01;25.08;;;13.52;;
24715;SDS011;12822;50.124;8.678;2024-01-30T13:10:27;23.67;;;13.85;;
24715;SDS011;12822;50.124;8.678;2024-01-30T13:12:53;22.77;;;14.15;;
24715;SDS011;12822;50.124;8.678;2024-01-30T13:15:19;23.38;;;14.35;;
24715;SDS011;12822;50.124;8.678;2024-01-30T13:17:45;24.55;;;14.20;;
24715;SDS011;12822;50.124;8.678;2024-01-30T13:20:13;26.70;;;14.00;;
24715;SDS011;12822;50.124;8.678;2024-01-30T13:22:44;21.38;;;13.73;;
24715;SDS011;12822;50.124;8.678;2024-01-30T13:25:10;24.33;;;14.65;;
24715;SDS011;12822;50.124;8.678;2024-01-30T13:27:36;25.55;;;14.55;;
24715;SDS011;12822;50.124;8.678;2024-01-30T13:30:02;27.60;;;15.32;;
24715;SDS011;12822;50.124;8.678;2024-01-30T13:32:29;26.55;;;15.55;;
24715;SDS011;12822;50.124;8.678;2024-01-30T13:34:55;26.02;;;15.10;;
24715;SDS011;12822;50.124;8.678;2024-01-30T13:37:21;22.20;;;14.20;;
24715;SDS011;12822;50.124;8.678;2024-01-30T13:39:48;21.48;;;14.18;;
24715;SDS011;12822;50.124;8.678;2024-01-30T13:42:14;26.58;;;15.77;;
24715;SDS011;12822;50.124;8.678;2024-01-30T13:44:40;27.58;;;14.02;;
24715;SDS011;12822;50.124;8.678;2024-01-30T13:47:08;25.13;;;15.20;;
24715;SDS011;12822;50.124;8.678;2024-01-30T13:49:34;34.63;;;16.13;;
24715;SDS011;12822;50.124;8.678;2024-01-30T13:52:00;24.42;;;14.75;;
24715;SDS011;12822;50.124;8.678;2024-01-30T13:54:26;28.73;;;15.75;;
24715;SDS011;12822;50.124;8.678;2024-01-30T13:56:52;30.15;;;14.70;;
24715;SDS011;12822;50.124;8.678;2024-01-30T13:59:18;29.63;;;14.82;;
24715;SDS011;12822;50.124;8.678;2024-01-30T14:01:48;28.10;;;14.43;;
24715;SDS011;12822;50.124;8.678;2024-01-30T14:04:14;27.17;;;14.88;;
24715;SDS011;12822;50.124;8.678;2024-01-30T14:06:40;25.20;;;15.82;;
24715;SDS011;12822;50.124;8.678;2024-01-30T14:09:06;33.85;;;15.80;;
24715;SDS011;12822;50.124;8.678;2024-01-30T14:11:32;28.10;;;15.32;;
24715;SDS011;12822;50.124;8.678;2024-01-30T14:13:58;25.85;;;14.77;;
24715;SDS011;12822;50.124;8.678;2024-01-30T14:16:24;30.48;;;15.05;;
24715;SDS011;12822;50.124;8.678;2024-01-30T14:18:50;34.45;;;16.10;;